createdAt,value
2023-06-30T00:00:09.983Z,101508.75
2023-06-30T00:02:37.594Z,101507.06
2023-06-30T00:05:04.285Z,101503.97
2023-06-30T00:07:30.744Z,101498.13
2023-06-30T00:09:57.528Z,101495.81
2023-06-30T00:12:24.152Z,101502.50
2023-06-30T00:14:50.695Z,101497.06
2023-06-30T00:17:17.253Z,101499.41
2023-06-30T00:19:43.677Z,101497.97
2023-06-30T00:22:10.112Z,101501.94
2023-06-30T00:24:36.517Z,101495.91
2023-06-30T00:27:03.048Z,101494.22
2023-06-30T00:29:30.092Z,101495.28
2023-06-30T00:31:57.044Z,101488.41
2023-06-30T00:34:23.511Z,101490.72
2023-06-30T00:36:50.001Z,101488.44
2023-06-30T00:39:16.540Z,101483.44
2023-06-30T00:41:42.971Z,101482.00
2023-06-30T00:44:10.428Z,101474.03
2023-06-30T00:46:37.013Z,101479.06
2023-06-30T00:49:03.579Z,101474.06
2023-06-30T00:51:30.093Z,101475.34
2023-06-30T00:53:56.855Z,101470.13
2023-06-30T00:56:25.442Z,101477.91
2023-06-30T00:58:51.993Z,101472.88
2023-06-30T01:01:24.446Z,101472.66
2023-06-30T01:04:00.662Z,101472.88
2023-06-30T01:06:39.728Z,101473.94
2023-06-30T01:09:14.586Z,101476.03
2023-06-30T01:11:42.670Z,101474.38
2023-06-30T01:14:12.359Z,101464.56
2023-06-30T01:16:41.680Z,101468.94
2023-06-30T01:19:21.628Z,101470.00
2023-06-30T01:21:48.500Z,101474.19
2023-06-30T01:24:17.666Z,101481.47
2023-06-30T01:26:44.278Z,101480.25
2023-06-30T01:29:11.349Z,101475.03
2023-06-30T01:31:37.908Z,101476.09
2023-06-30T01:34:04.408Z,101478.63
2023-06-30T01:36:30.906Z,101478.22
2023-06-30T01:38:59.305Z,101471.31
2023-06-30T01:41:26.460Z,101466.13
2023-06-30T01:43:53.988Z,101462.75
2023-06-30T01:46:20.494Z,101469.25
2023-06-30T01:48:47.626Z,101465.72
2023-06-30T01:51:14.790Z,101472.38
2023-06-30T01:53:41.315Z,101469.91
2023-06-30T01:56:07.783Z,101469.25
2023-06-30T01:58:34.289Z,101468.44
2023-06-30T02:01:00.920Z,101470.53
2023-06-30T02:03:29.233Z,101467.00
2023-06-30T02:05:55.671Z,101462.59
2023-06-30T02:08:22.692Z,101466.38
2023-06-30T02:10:49.282Z,101457.63
2023-06-30T02:13:16.926Z,101461.34
2023-06-30T02:15:43.528Z,101462.81
2023-06-30T02:18:10.231Z,101461.16
2023-06-30T02:20:36.670Z,101454.91
2023-06-30T02:23:03.185Z,101455.09
2023-06-30T02:25:29.611Z,101459.09
2023-06-30T02:27:56.060Z,101455.97
2023-06-30T02:30:22.563Z,101448.25
2023-06-30T02:32:49.311Z,101448.03
2023-06-30T02:35:16.060Z,101457.19
2023-06-30T02:37:42.658Z,101452.22
2023-06-30T02:40:10.253Z,101455.13
2023-06-30T02:42:36.736Z,101454.28
2023-06-30T02:45:05.214Z,101460.75
2023-06-30T02:47:32.377Z,101457.00
2023-06-30T02:49:58.922Z,101458.06
2023-06-30T02:52:26.628Z,101459.94
2023-06-30T02:54:53.219Z,101457.41
2023-06-30T02:57:20.427Z,101456.59
2023-06-30T02:59:47.284Z,101450.53
2023-06-30T03:02:14.491Z,101452.84
2023-06-30T03:04:41.140Z,101450.56
2023-06-30T03:07:08.662Z,101449.09
2023-06-30T03:09:37.619Z,101458.09
2023-06-30T03:12:04.490Z,101456.63
2023-06-30T03:14:31.067Z,101454.31
2023-06-30T03:16:57.633Z,101450.16
2023-06-30T03:19:24.112Z,101453.91
2023-06-30T03:21:50.601Z,101445.97
2023-06-30T03:24:18.421Z,101453.69
2023-06-30T03:26:44.958Z,101459.53
2023-06-30T03:29:19.632Z,101453.69
2023-06-30T03:31:46.210Z,101452.88
2023-06-30T03:34:12.727Z,101454.13
2023-06-30T03:36:39.269Z,101458.09
2023-06-30T03:39:08.604Z,101456.44
2023-06-30T03:41:35.194Z,101457.91
2023-06-30T03:44:01.757Z,101451.81
2023-06-30T03:46:28.366Z,101458.53
2023-06-30T03:48:54.911Z,101451.63
2023-06-30T03:51:21.546Z,101443.50
2023-06-30T03:53:51.349Z,101448.91
2023-06-30T03:56:17.792Z,101455.38
2023-06-30T03:58:44.418Z,101454.34
2023-06-30T04:01:12.391Z,101451.00
2023-06-30T04:03:39.545Z,101451.84
2023-06-30T04:06:06.182Z,101457.47
2023-06-30T04:08:33.110Z,101459.13
2023-06-30T04:10:59.644Z,101457.25
2023-06-30T04:13:26.095Z,101456.22
2023-06-30T04:15:52.614Z,101454.34
2023-06-30T04:18:19.080Z,101455.16
2023-06-30T04:20:45.602Z,101460.78
2023-06-30T04:23:12.025Z,101457.25
2023-06-30T04:25:38.589Z,101454.94
2023-06-30T04:28:05.043Z,101453.09
2023-06-30T04:30:31.564Z,101456.81
2023-06-30T04:32:58.094Z,101447.84
2023-06-30T04:35:26.390Z,101454.13
2023-06-30T04:37:53.548Z,101449.34
2023-06-30T04:40:20.107Z,101452.66
2023-06-30T04:42:46.541Z,101448.91
2023-06-30T04:45:13.044Z,101453.91
2023-06-30T04:47:40.145Z,101449.94
2023-06-30T04:50:07.017Z,101443.28
2023-06-30T04:52:33.585Z,101456.38
2023-06-30T04:55:00.160Z,101454.50
2023-06-30T04:57:27.502Z,101450.56
2023-06-30T04:59:55.917Z,101449.31
2023-06-30T05:02:22.489Z,101454.28
2023-06-30T05:04:50.292Z,101464.72
2023-06-30T05:07:16.811Z,101460.75
2023-06-30T05:09:43.575Z,101460.75
2023-06-30T05:12:10.076Z,101461.19
2023-06-30T05:14:36.740Z,101467.00
2023-06-30T05:17:03.489Z,101464.09
2023-06-30T05:19:30.072Z,101455.56
2023-06-30T05:21:56.517Z,101451.78
2023-06-30T05:24:22.967Z,101450.31
2023-06-30T05:26:49.612Z,101451.31
2023-06-30T05:29:16.041Z,101461.34
2023-06-30T05:31:42.571Z,101459.66
2023-06-30T05:34:10.044Z,101455.44
2023-06-30T05:36:37.592Z,101446.56
2023-06-30T05:39:04.166Z,101452.53
2023-06-30T05:41:30.657Z,101456.78
2023-06-30T05:43:57.094Z,101451.47
2023-06-30T05:46:23.605Z,101451.78
2023-06-30T05:48:50.115Z,101450.00
2023-06-30T05:51:16.565Z,101450.94
2023-06-30T05:53:42.982Z,101457.50
2023-06-30T05:56:09.477Z,101455.81
2023-06-30T05:58:39.004Z,101454.91
2023-06-30T06:01:05.493Z,101455.03
2023-06-30T06:03:32.232Z,101447.50
2023-06-30T06:05:58.985Z,101456.50
2023-06-30T06:08:25.688Z,101457.31
2023-06-30T06:10:52.245Z,101452.50
2023-06-30T06:13:36.276Z,101448.72
2023-06-30T06:16:04.095Z,101451.66
2023-06-30T06:18:30.920Z,101444.94
2023-06-30T06:20:58.058Z,101446.22
2023-06-30T06:23:25.553Z,101449.78
2023-06-30T06:25:52.253Z,101451.66
2023-06-30T06:28:18.924Z,101446.81
2023-06-30T06:30:46.161Z,101449.53
2023-06-30T06:33:12.701Z,101461.50
2023-06-30T06:35:39.108Z,101459.84
2023-06-30T06:38:05.625Z,101456.06
2023-06-30T06:40:33.736Z,101441.75
2023-06-30T06:43:00.151Z,101444.94
2023-06-30T06:45:27.846Z,101444.34
2023-06-30T06:48:22.561Z,101447.66
2023-06-30T06:50:50.802Z,101460.19
2023-06-30T06:53:22.381Z,101453.47
2023-06-30T06:55:50.034Z,101449.88
2023-06-30T06:58:16.804Z,101446.47
2023-06-30T07:00:45.382Z,101452.97
2023-06-30T07:03:11.858Z,101439.94
2023-06-30T07:05:41.185Z,101443.50
2023-06-30T07:08:08.407Z,101449.56
2023-06-30T07:10:35.162Z,101453.28
2023-06-30T07:13:02.848Z,101455.13
2023-06-30T07:15:29.824Z,101457.75
2023-06-30T07:17:57.331Z,101459.78
2023-06-30T07:20:24.822Z,101464.66
2023-06-30T07:22:52.364Z,101459.41
2023-06-30T07:25:18.904Z,101461.16
2023-06-30T07:27:54.146Z,101458.56
2023-06-30T07:30:22.535Z,101458.50
2023-06-30T07:32:49.416Z,101454.34
2023-06-30T07:35:16.062Z,101454.13
2023-06-30T07:37:42.503Z,101449.41
2023-06-30T07:40:16.564Z,101455.84
2023-06-30T07:42:47.584Z,101447.38
2023-06-30T07:45:16.465Z,101441.47
2023-06-30T07:47:44.972Z,101441.81
2023-06-30T07:50:13.425Z,101435.06
2023-06-30T07:52:45.170Z,101434.63
2023-06-30T07:55:17.194Z,101434.63
2023-06-30T07:57:44.922Z,101436.88
2023-06-30T08:00:16.192Z,101437.84
2023-06-30T08:02:43.472Z,101439.28
2023-06-30T08:05:10.386Z,101427.31
2023-06-30T08:07:49.213Z,101427.22
2023-06-30T08:10:17.673Z,101426.16
2023-06-30T08:12:44.205Z,101423.06
2023-06-30T08:15:10.886Z,101425.16
2023-06-30T08:17:51.004Z,101441.53
2023-06-30T08:20:20.723Z,101434.22
2023-06-30T08:22:47.323Z,101431.38
2023-06-30T08:25:14.012Z,101429.38
2023-06-30T08:27:40.457Z,101431.78
2023-06-30T08:30:07.715Z,101422.31
2023-06-30T08:32:34.261Z,101434.25
2023-06-30T08:35:02.688Z,101427.28
2023-06-30T08:37:29.199Z,101425.31
2023-06-30T08:39:55.643Z,101422.34
2023-06-30T08:42:29.500Z,101420.47
2023-06-30T08:44:57.973Z,101423.03
2023-06-30T08:47:29.428Z,101418.19
2023-06-30T08:49:57.269Z,101419.03
2023-06-30T08:52:23.791Z,101411.41
2023-06-30T08:54:50.329Z,101411.19
2023-06-30T08:57:17.234Z,101409.75
2023-06-30T08:59:44.452Z,101404.66
2023-06-30T09:02:12.908Z,101399.31
2023-06-30T09:04:41.297Z,101402.75
2023-06-30T09:07:16.220Z,101396.59
2023-06-30T09:09:45.149Z,101393.06
2023-06-30T09:12:11.894Z,101394.38
2023-06-30T09:14:41.422Z,101390.81
2023-06-30T09:17:07.899Z,101394.16
2023-06-30T09:19:35.137Z,101385.00
2023-06-30T09:22:51.046Z,101389.16
2023-06-30T09:24:49.611Z,101370.63
2023-06-30T09:27:17.963Z,101381.44
2023-06-30T09:29:54.255Z,101377.75
2023-06-30T09:32:28.833Z,101371.22
2023-06-30T09:34:55.493Z,101386.78
2023-06-30T09:37:22.320Z,101381.06
2023-06-30T09:39:53.284Z,101379.50
2023-06-30T09:42:22.022Z,101385.09
2023-06-30T09:44:48.832Z,101370.97
2023-06-30T09:47:18.408Z,101383.09
2023-06-30T09:49:46.669Z,101372.53
2023-06-30T09:52:23.729Z,101374.19
2023-06-30T09:54:50.325Z,101374.31
2023-06-30T09:57:16.765Z,101365.75
2023-06-30T09:59:43.193Z,101367.84
2023-06-30T10:02:11.412Z,101376.03
2023-06-30T10:04:38.470Z,101369.50
2023-06-30T10:07:06.287Z,101363.03
2023-06-30T10:09:35.199Z,101359.56
2023-06-30T10:12:02.886Z,101360.84
2023-06-30T10:14:31.946Z,101369.75
2023-06-30T10:17:01.801Z,101366.44
2023-06-30T10:19:31.121Z,101354.41
2023-06-30T10:21:58.554Z,101349.53
2023-06-30T10:24:27.986Z,101359.81
2023-06-30T10:26:55.858Z,101353.38
2023-06-30T10:29:23.379Z,101360.16
2023-06-30T10:31:50.207Z,101351.47
2023-06-30T10:34:18.159Z,101342.06
2023-06-30T10:36:45.501Z,101345.06
2023-06-30T10:39:12.585Z,101331.81
2023-06-30T10:41:47.123Z,101340.09
2023-06-30T10:44:13.538Z,101338.50
2023-06-30T10:46:51.180Z,101330.66
2023-06-30T10:49:30.757Z,101335.13
2023-06-30T10:51:59.820Z,101333.81
2023-06-30T10:54:42.422Z,101335.72
2023-06-30T10:57:26.013Z,101337.16
2023-06-30T11:00:12.495Z,101328.25
2023-06-30T11:02:51.498Z,101329.44
2023-06-30T11:05:22.867Z,101327.53
2023-06-30T11:08:07.990Z,101325.00
2023-06-30T11:10:45.210Z,101315.69
2023-06-30T11:13:12.303Z,101301.63
2023-06-30T11:15:45.143Z,101302.66
2023-06-30T11:18:23.328Z,101303.94
2023-06-30T11:21:02.887Z,101303.03
2023-06-30T11:23:33.678Z,101295.41
2023-06-30T11:26:13.118Z,101290.44
2023-06-30T11:28:41.883Z,101288.09
2023-06-30T11:31:08.434Z,101296.97
2023-06-30T11:33:49.050Z,101298.22
2023-06-30T11:36:17.216Z,101288.25
2023-06-30T11:38:47.180Z,101288.72
2023-06-30T11:41:21.927Z,101292.81
2023-06-30T11:43:56.265Z,101301.50
2023-06-30T11:46:23.134Z,101295.13
2023-06-30T11:48:50.543Z,101295.00
2023-06-30T11:51:18.338Z,101296.44
2023-06-30T11:53:47.557Z,101298.81
2023-06-30T11:56:14.099Z,101302.16
2023-06-30T11:58:48.426Z,101296.09
2023-06-30T12:01:14.897Z,101293.63
2023-06-30T12:03:41.400Z,101289.53
2023-06-30T12:06:08.869Z,101285.84
2023-06-30T12:08:39.964Z,101280.94
2023-06-30T12:11:09.834Z,101280.31
2023-06-30T12:13:42.932Z,101273.69
2023-06-30T12:16:09.441Z,101263.34
2023-06-30T12:18:38.117Z,101262.94
2023-06-30T12:21:14.626Z,101268.47
2023-06-30T12:23:45.640Z,101254.38
2023-06-30T12:26:16.365Z,101248.50
2023-06-30T12:28:43.404Z,101241.13
2023-06-30T12:31:09.988Z,101243.25
2023-06-30T12:33:36.545Z,101232.56
2023-06-30T12:36:07.395Z,101240.28
2023-06-30T12:38:34.012Z,101227.56
2023-06-30T12:41:01.029Z,101232.22
2023-06-30T12:43:28.344Z,101224.19
2023-06-30T12:45:54.905Z,101223.50
2023-06-30T12:48:21.316Z,101220.59
2023-06-30T12:50:47.972Z,101222.34
2023-06-30T12:53:14.550Z,101228.47
2023-06-30T12:55:41.027Z,101211.94
2023-06-30T12:58:07.563Z,101213.47
2023-06-30T13:00:33.991Z,101211.94
2023-06-30T13:03:00.586Z,101203.31
2023-06-30T13:05:27.172Z,101212.50
2023-06-30T13:07:53.639Z,101203.56
2023-06-30T13:10:20.072Z,101197.25
2023-06-30T13:12:46.540Z,101213.19
2023-06-30T13:15:13.008Z,101199.81
2023-06-30T13:17:39.553Z,101192.44
2023-06-30T13:20:07.583Z,101192.16
2023-06-30T13:22:36.223Z,101184.97
2023-06-30T13:25:03.807Z,101186.00
2023-06-30T13:27:30.277Z,101182.56
2023-06-30T13:29:57.478Z,101180.44
2023-06-30T13:32:23.986Z,101177.53
2023-06-30T13:34:50.537Z,101182.16
2023-06-30T13:37:17.046Z,101181.19
2023-06-30T13:39:43.552Z,101180.38
2023-06-30T13:42:10.420Z,101174.66
2023-06-30T13:44:37.505Z,101177.38
2023-06-30T13:47:04.282Z,101166.47
2023-06-30T13:49:30.703Z,101172.16
2023-06-30T13:51:57.181Z,101167.44
2023-06-30T13:54:24.421Z,101161.50
2023-06-30T13:56:51.488Z,101159.84
2023-06-30T13:59:18.000Z,101163.94
2023-06-30T14:01:44.501Z,101157.63
2023-06-30T14:04:11.018Z,101152.25
2023-06-30T14:06:37.545Z,101151.25
2023-06-30T14:09:03.973Z,101150.22
2023-06-30T14:11:30.422Z,101145.63
2023-06-30T14:13:57.622Z,101148.41
2023-06-30T14:16:24.776Z,101150.84
2023-06-30T14:18:51.498Z,101140.16
2023-06-30T14:21:19.367Z,101145.97
2023-06-30T14:23:46.244Z,101149.56
2023-06-30T14:26:12.749Z,101146.03
2023-06-30T14:28:39.328Z,101141.63
2023-06-30T14:31:06.009Z,101138.34
2023-06-30T14:33:32.687Z,101148.56
2023-06-30T14:35:59.732Z,101140.09
2023-06-30T14:38:26.269Z,101156.28
2023-06-30T14:40:52.856Z,101154.59
2023-06-30T14:43:19.464Z,101156.50
2023-06-30T14:45:46.448Z,101152.88
2023-06-30T14:48:13.225Z,101158.66
2023-06-30T14:50:39.665Z,101154.53
2023-06-30T14:53:06.107Z,101146.56
2023-06-30T14:55:32.600Z,101146.00
2023-06-30T14:57:59.110Z,101141.78
2023-06-30T15:00:25.598Z,101148.59
2023-06-30T15:02:52.159Z,101137.28
2023-06-30T15:05:18.650Z,101143.06
2023-06-30T15:07:47.572Z,101134.28
2023-06-30T15:10:14.690Z,101137.59
2023-06-30T15:12:41.264Z,101133.16
2023-06-30T15:15:08.205Z,101121.63
2023-06-30T15:17:34.730Z,101122.97
2023-06-30T15:20:01.376Z,101118.88
2023-06-30T15:22:30.401Z,101110.88
2023-06-30T15:24:58.624Z,101122.44
2023-06-30T15:27:25.725Z,101113.31
2023-06-30T15:29:53.149Z,101106.19
2023-06-30T15:32:20.122Z,101109.44
2023-06-30T15:34:47.029Z,101098.78
2023-06-30T15:37:13.546Z,101098.56
2023-06-30T15:39:40.139Z,101101.28
2023-06-30T15:42:06.702Z,101095.22
2023-06-30T15:44:33.234Z,101109.75
2023-06-30T15:47:01.438Z,101096.34
2023-06-30T15:49:28.014Z,101105.06
2023-06-30T15:51:54.539Z,101100.16
2023-06-30T15:54:21.063Z,101091.94
2023-06-30T15:56:47.623Z,101086.91
2023-06-30T15:59:14.169Z,101083.91
2023-06-30T16:01:40.640Z,101086.91
2023-06-30T16:04:07.243Z,101099.78
2023-06-30T16:06:33.772Z,101097.31
2023-06-30T16:09:00.214Z,101089.59
2023-06-30T16:11:26.640Z,101088.16
2023-06-30T16:13:53.147Z,101081.22
2023-06-30T16:16:19.713Z,101079.84
2023-06-30T16:18:46.392Z,101078.41
2023-06-30T16:21:12.858Z,101082.16
2023-06-30T16:23:39.313Z,101075.88
2023-06-30T16:26:05.726Z,101080.81
2023-06-30T16:28:32.292Z,101079.66
2023-06-30T16:30:58.739Z,101070.00
2023-06-30T16:33:25.320Z,101073.25
2023-06-30T16:35:52.056Z,101075.97
2023-06-30T16:38:18.572Z,101065.50
2023-06-30T16:40:45.096Z,101059.72
2023-06-30T16:43:11.525Z,101055.28
2023-06-30T16:45:38.031Z,101058.56
2023-06-30T16:48:05.447Z,101063.69
2023-06-30T16:50:32.309Z,101059.25
2023-06-30T16:52:59.573Z,101057.56
2023-06-30T16:55:26.117Z,101058.47
2023-06-30T16:57:52.603Z,101052.19
2023-06-30T17:00:19.329Z,101062.28
2023-06-30T17:02:47.741Z,101053.97
2023-06-30T17:05:14.720Z,101051.19
2023-06-30T17:07:41.313Z,101044.34
2023-06-30T17:10:08.134Z,101036.97
2023-06-30T17:12:35.110Z,101047.66
2023-06-30T17:15:01.685Z,101049.00
2023-06-30T17:17:28.299Z,101041.69
2023-06-30T17:19:54.831Z,101045.25
2023-06-30T17:22:21.290Z,101034.50
2023-06-30T17:24:47.791Z,101046.53
2023-06-30T17:27:14.253Z,101045.72
2023-06-30T17:29:40.890Z,101036.84
2023-06-30T17:32:08.074Z,101036.78
2023-06-30T17:34:34.574Z,101034.81
2023-06-30T17:37:07.783Z,101043.75
2023-06-30T17:39:34.960Z,101043.38
2023-06-30T17:42:01.522Z,101038.00
2023-06-30T17:44:29.102Z,101038.88
2023-06-30T17:46:57.248Z,101036.09
2023-06-30T17:49:29.833Z,101034.13
2023-06-30T17:51:56.361Z,101033.47
2023-06-30T17:54:25.697Z,101038.72
2023-06-30T17:56:52.321Z,101033.59
2023-06-30T17:59:18.817Z,101030.28
2023-06-30T18:01:46.069Z,101033.84
2023-06-30T18:04:14.320Z,101019.03
2023-06-30T18:07:05.940Z,101023.41
2023-06-30T18:09:34.084Z,101016.31
2023-06-30T18:12:02.116Z,101010.84
2023-06-30T18:14:29.862Z,101014.66
2023-06-30T18:16:56.668Z,101010.50
2023-06-30T18:19:23.801Z,101015.97
2023-06-30T18:21:52.433Z,101012.75
2023-06-30T18:24:19.648Z,101009.50
2023-06-30T18:26:48.524Z,101008.44
2023-06-30T18:29:24.627Z,101012.16
2023-06-30T18:31:52.543Z,101009.38
2023-06-30T18:34:22.509Z,101004.72
2023-06-30T18:36:49.020Z,101002.00
2023-06-30T18:39:17.630Z,101009.09
2023-06-30T18:41:44.540Z,101006.91
2023-06-30T18:44:11.044Z,101007.72
2023-06-30T18:46:37.593Z,100999.75
2023-06-30T18:49:07.607Z,100997.28
2023-06-30T18:51:35.427Z,100996.41
2023-06-30T18:54:01.919Z,101004.03
2023-06-30T18:56:29.862Z,100998.72
2023-06-30T18:59:00.703Z,100991.88
2023-06-30T19:01:28.902Z,100995.94
2023-06-30T19:03:56.231Z,100992.88
2023-06-30T19:06:24.538Z,100984.94
2023-06-30T19:08:51.467Z,100987.94
2023-06-30T19:11:18.303Z,100985.22
2023-06-30T19:13:45.115Z,100982.78
2023-06-30T19:16:11.932Z,100975.66
2023-06-30T19:18:39.987Z,100978.84
2023-06-30T19:21:07.425Z,100970.09
2023-06-30T19:23:34.857Z,100963.53
2023-06-30T19:26:01.335Z,100974.19
2023-06-30T19:28:27.921Z,100959.72
2023-06-30T19:30:54.598Z,100953.16
2023-06-30T19:33:28.918Z,100956.75
2023-06-30T19:35:56.199Z,100959.22
2023-06-30T19:38:22.726Z,100956.97
2023-06-30T19:40:49.204Z,100940.66
2023-06-30T19:43:15.903Z,100944.78
2023-06-30T19:45:43.209Z,100944.47
2023-06-30T19:48:09.999Z,100945.63
2023-06-30T19:50:37.438Z,100940.09
2023-06-30T19:53:04.077Z,100935.91
2023-06-30T19:55:32.989Z,100932.34
2023-06-30T19:57:59.479Z,100931.56
2023-06-30T20:00:25.980Z,100935.91
2023-06-30T20:02:55.178Z,100925.34
2023-06-30T20:05:21.821Z,100926.06
2023-06-30T20:07:48.407Z,100931.28
2023-06-30T20:10:14.871Z,100929.28
2023-06-30T20:12:41.446Z,100923.56
2023-06-30T20:15:08.803Z,100923.50
2023-06-30T20:17:35.752Z,100919.13
2023-06-30T20:20:02.369Z,100914.56
2023-06-30T20:22:28.857Z,100917.34
2023-06-30T20:24:55.403Z,100915.16
2023-06-30T20:27:21.896Z,100907.69
2023-06-30T20:29:48.383Z,100910.75
2023-06-30T20:32:15.043Z,100909.03
2023-06-30T20:34:41.881Z,100902.50
2023-06-30T20:37:10.657Z,100897.69
2023-06-30T20:39:37.559Z,100892.66
2023-06-30T20:42:04.440Z,100892.06
2023-06-30T20:44:30.899Z,100882.16
2023-06-30T20:46:57.464Z,100883.56
2023-06-30T20:49:24.398Z,100871.19
2023-06-30T20:51:53.792Z,100873.16
2023-06-30T20:54:21.762Z,100875.13
2023-06-30T20:56:48.427Z,100873.91
2023-06-30T20:59:16.297Z,100866.16
2023-06-30T21:01:42.942Z,100868.88
2023-06-30T21:04:09.764Z,100862.16
2023-06-30T21:06:36.445Z,100866.13
2023-06-30T21:09:06.008Z,100860.13
2023-06-30T21:11:33.467Z,100856.25
2023-06-30T21:14:00.738Z,100857.91
2023-06-30T21:16:27.470Z,100851.38
2023-06-30T21:18:54.120Z,100848.97
2023-06-30T21:21:20.598Z,100849.28
2023-06-30T21:23:47.280Z,100845.75
2023-06-30T21:26:13.843Z,100839.50
2023-06-30T21:28:40.332Z,100831.06
2023-06-30T21:31:06.853Z,100821.19
2023-06-30T21:33:33.357Z,100827.25
2023-06-30T21:36:00.180Z,100817.16
2023-06-30T21:38:26.873Z,100813.28
2023-06-30T21:40:53.409Z,100805.34
2023-06-30T21:43:19.857Z,100805.09
2023-06-30T21:45:46.415Z,100798.63
2023-06-30T21:48:13.957Z,100794.53
2023-06-30T21:50:40.801Z,100796.44
2023-06-30T21:53:07.385Z,100803.81
2023-06-30T21:55:35.132Z,100797.28
2023-06-30T21:58:06.494Z,100790.44
2023-06-30T22:00:38.095Z,100787.72
2023-06-30T22:03:04.845Z,100778.13
2023-06-30T22:05:31.436Z,100782.97
2023-06-30T22:07:57.951Z,100772.50
2023-06-30T22:10:24.460Z,100773.88
2023-06-30T22:12:50.977Z,100771.13
2023-06-30T22:15:17.624Z,100774.41
2023-06-30T22:17:44.137Z,100764.91
2023-06-30T22:20:10.862Z,100757.50
2023-06-30T22:22:37.434Z,100755.91
2023-06-30T22:25:04.278Z,100751.75
2023-06-30T22:27:32.205Z,100745.44
2023-06-30T22:29:58.712Z,100742.69
2023-06-30T22:32:25.587Z,100747.00
2023-06-30T22:34:52.053Z,100739.91
2023-06-30T22:37:18.660Z,100735.59
2023-06-30T22:39:45.144Z,100729.81
2023-06-30T22:42:11.592Z,100728.91
2023-06-30T22:44:38.135Z,100729.19
2023-06-30T22:47:04.919Z,100718.81
2023-06-30T22:49:31.455Z,100715.34
2023-06-30T22:51:58.192Z,100714.50
2023-06-30T22:54:26.123Z,100702.28
2023-06-30T22:56:52.647Z,100700.31
2023-06-30T22:59:19.080Z,100696.75
2023-06-30T23:01:45.675Z,100687.63
2023-06-30T23:04:12.311Z,100685.66
2023-06-30T23:06:38.814Z,100693.06
2023-06-30T23:09:05.575Z,100692.97
2023-06-30T23:11:32.053Z,100685.78
2023-06-30T23:13:58.673Z,100687.94
2023-06-30T23:16:25.089Z,100691.66
2023-06-30T23:18:51.692Z,100681.25
2023-06-30T23:21:19.203Z,100676.38
2023-06-30T23:23:46.483Z,100679.28
2023-06-30T23:26:15.137Z,100668.63
2023-06-30T23:28:44.451Z,100672.16
2023-06-30T23:31:11.126Z,100676.56
2023-06-30T23:33:37.979Z,100672.44
2023-06-30T23:36:04.839Z,100667.69
2023-06-30T23:38:31.351Z,100666.31
2023-06-30T23:40:58.218Z,100657.88
2023-06-30T23:43:24.709Z,100659.84
2023-06-30T23:45:51.730Z,100658.28
2023-06-30T23:48:18.247Z,100646.34
2023-06-30T23:50:44.993Z,100649.53
2023-06-30T23:53:11.683Z,100651.44
2023-06-30T23:55:38.191Z,100652.09
2023-06-30T23:58:04.667Z,100643.34
